Athina, Greece

9:07 PM EET on March 04, 2015 (GMT +0200)
Larissis Station | Change Station
CLOSE
Current Station
Personal Weather Station
Location: Athens, ATTICA
Elevation: 200 ft
Nearby Weather Stations

Elev 200 ft 37.99 °N, 23.72 °E | Updated 39 seconds ago

Partly Cloudy
Partly Cloudy
54.0 °F
Feels Like 54.0 °F
N
4.0
Wind Variable Wind from North
Gusts 5.0 mph

Today
High -- | Low -- °F
--% Chance of Precip.
Yesterday
High -- | Low -- °F
Precip. -- in
6:53 AM 6:21 PM
Waxing Gibbous, 99% visible
Pressure 30.24 in
Visibility 6.2 miles
Clouds Few 3000 ft
Dew Point 38 °F
Humidity 55%
Rainfall 0.00 in
Snow Depth Not available.
UV 0 out of 12
Pollen Not available.
Air Quality Not available.
Flu Activity Not available.
METAR LGEL 041850Z 36003KT 9999 FEW030 08/04 Q1024

More Conditions Fewer Conditions

Pressure 30.24 in
Visibility 6.2 miles
Clouds Few 3000 ft
Dew Point 38 °F
Humidity 55%
Rainfall 0.00 in
Snow Depth Not available.
UV 0 out of 12
Pollen Not available.
Air Quality Not available.
Flu Activity Not available.
METAR LGEL 041850Z 36003KT 9999 FEW030 08/04 Q1024

More Conditions Fewer Conditions

10-Day Weather Forecast

Almanac

Astronomy

Mar. 04, 2015 Rise Set
Actual Time
Civil Twilight
Nautical Twilight
Astronomical Twilight
Moon
Length of Visible Light
Length of Day
Tomorrow will be .
, % of the Moon is Illuminated

Today's Extremes

Country Highs Country Lows

Community

WunderPhotos

Upload Photos

1,802,543 photos uploaded!

WunderBlogs® & News

Nearby

Air Quality

  Air Quality AQ Index Pollutant
Not available.

Snow Depth

Station Depth Elevation

Earthquake Activity

City Distance Mag. Time & Date
Minimum magnitude displayed is 2.5.

Coastal Water Temperatures

Place Temperature

Nearby Weather Stations